Time;durP1;ratioP1;P1;durP2;ratioP2;P2;SDS_P1;SDS_P2;PMS_P1;PMS_P2;Temp;Humidity;BMP_temperature;BMP_pressure;BME280_temperature;BME280_humidity;BME280_pressure;Samples;Min_cycle;Max_cycle;Signal;HPM_P1;HPM_P2
2022/11/16 00:01:27;;;;;;;8.93;7.95;;;;;;;12.21;83.40;99749.19;4990697;28;20045;-62
2022/11/16 00:03:54;;;;;;;9.25;8.30;;;;;;;12.19;83.79;99746.72;4973273;28;20050;-62
2022/11/16 00:06:21;;;;;;;9.00;7.88;;;;;;;12.20;83.39;99748.38;4972764;28;20033;-62
2022/11/16 00:11:32;;;;;;;9.43;7.80;;;;;;;12.20;83.74;99741.97;4990578;28;20033;-62
2022/11/16 00:13:58;;;;;;;9.00;7.72;;;;;;;12.19;83.91;99748.66;4991478;28;20030;-62
2022/11/16 00:16:23;;;;;;;8.52;7.55;;;;;;;12.20;83.64;99753.09;4990870;28;20041;-62
2022/11/16 00:18:54;;;;;;;10.55;8.45;;;;;;;12.18;84.53;99755.31;4991902;28;20038;-61
2022/11/16 00:21:20;;;;;;;12.15;8.23;;;;;;;12.20;83.73;99761.44;4992209;28;20053;-62
2022/11/16 00:23:45;;;;;;;9.85;8.32;;;;;;;12.18;84.30;99750.63;4991219;28;20482;-62
2022/11/16 00:26:11;;;;;;;8.80;7.85;;;;;;;12.20;83.83;99747.53;4991861;28;20030;-62
2022/11/16 00:28:36;;;;;;;10.57;8.65;;;;;;;12.16;84.11;99752.03;4991127;28;20038;-62
2022/11/16 00:31:04;;;;;;;8.38;7.53;;;;;;;12.12;84.65;99754.56;4985053;28;20027;-62
2022/11/16 00:33:29;;;;;;;9.27;8.07;;;;;;;12.15;84.28;99753.16;4982300;28;20109;-62
2022/11/16 00:35:54;;;;;;;8.25;7.53;;;;;;;12.17;83.99;99737.81;4991628;28;20153;-62
2022/11/16 00:38:20;;;;;;;11.30;8.27;;;;;;;12.16;84.68;99733.38;4991182;28;20469;-62
2022/11/16 00:40:46;;;;;;;8.93;8.02;;;;;;;12.16;84.56;99725.03;4990985;28;20144;-62
2022/11/16 00:43:11;;;;;;;8.90;8.00;;;;;;;12.15;84.74;99720.59;4991765;28;20117;-62
2022/11/16 00:45:38;;;;;;;8.82;7.85;;;;;;;12.18;84.49;99725.59;4991499;28;20050;-62
2022/11/16 00:48:04;;;;;;;7.88;7.07;;;;;;;12.19;84.17;99706.94;4990874;28;20037;-62
2022/11/16 00:50:29;;;;;;;8.75;7.85;;;;;;;12.20;84.34;99714.16;4990961;28;20042;-62
2022/11/16 00:52:55;;;;;;;8.18;7.25;;;;;;;12.18;84.52;99741.41;4991895;28;20026;-62
2022/11/16 00:55:20;;;;;;;9.43;7.22;;;;;;;12.20;84.30;99742.78;4990479;28;20081;-62
2022/11/16 00:57:45;;;;;;;10.07;7.72;;;;;;;12.19;84.87;99737.53;4991116;28;20046;-62
2022/11/16 01:00:11;;;;;;;7.93;7.03;;;;;;;12.17;84.92;99732.25;4990657;28;20180;-62
2022/11/16 01:02:37;;;;;;;7.78;7.07;;;;;;;12.16;84.70;99730.59;4977917;28;20039;-62
2022/11/16 01:05:03;;;;;;;8.68;6.90;;;;;;;12.16;85.04;99725.03;4972735;28;20054;-62
2022/11/16 01:07:28;;;;;;;7.28;6.55;;;;;;;12.17;84.94;99731.41;4983539;28;20030;-62
2022/11/16 01:09:53;;;;;;;7.13;6.32;;;;;;;12.18;84.85;99733.06;4990393;28;20076;-62
2022/11/16 01:12:18;;;;;;;7.88;7.07;;;;;;;12.15;85.37;99734.50;4991299;28;20482;-62
2022/11/16 01:14:46;;;;;;;8.35;6.97;;;;;;;12.13;85.33;99717.25;4993763;28;20084;-62
2022/11/16 01:17:12;;;;;;;8.07;7.13;;;;;;;12.16;84.98;99710.28;5010556;28;20098;-62
2022/11/16 01:19:37;;;;;;;11.52;7.13;;;;;;;12.15;84.94;99714.22;4995660;28;20045;-62
2022/11/16 01:22:03;;;;;;;7.75;6.97;;;;;;;12.17;84.80;99712.78;4990215;28;20022;-62
2022/11/16 01:24:28;;;;;;;7.13;6.53;;;;;;;12.17;84.94;99714.72;4990928;28;20478;-62
2022/11/16 01:26:55;;;;;;;7.43;6.70;;;;;;;12.17;84.97;99704.44;4991793;28;20027;-62
2022/11/16 01:29:23;;;;;;;7.18;6.47;;;;;;;12.19;85.04;99707.75;4991191;28;20034;-62
2022/11/16 01:31:48;;;;;;;7.75;6.28;;;;;;;12.19;85.09;99704.16;4989242;28;20113;-62
2022/11/16 01:34:13;;;;;;;7.43;6.72;;;;;;;12.18;85.39;99708.03;4991257;28;20138;-62
2022/11/16 01:36:39;;;;;;;6.82;6.13;;;;;;;12.20;85.36;99697.47;4984895;28;20038;-62
2022/11/16 01:39:04;;;;;;;7.63;6.72;;;;;;;12.21;85.16;99699.13;4991538;28;20092;-62
2022/11/16 01:41:29;;;;;;;6.95;6.35;;;;;;;12.17;85.38;99701.66;4991201;28;20026;-62
2022/11/16 01:43:57;;;;;;;8.38;6.60;;;;;;;12.20;85.06;99692.72;4989138;28;20052;-62
2022/11/16 01:46:24;;;;;;;8.65;7.35;;;;;;;12.20;85.18;99697.47;4989907;28;20026;-62
2022/11/16 01:49:11;;;;;;;8.00;6.47;;;;;;;12.21;85.09;99699.13;4989941;28;20473;-63
2022/11/16 01:51:38;;;;;;;7.22;6.18;;;;;;;12.20;85.28;99698.28;4977860;28;20050;-62
2022/11/16 01:54:07;;;;;;;8.15;6.50;;;;;;;12.22;85.38;99693.28;4982549;28;20038;-62
2022/11/16 01:56:35;;;;;;;8.00;6.95;;;;;;;12.20;85.61;99703.03;4990917;28;21280;-62
2022/11/16 01:59:01;;;;;;;8.93;7.05;;;;;;;12.21;85.61;99704.69;4991169;28;20030;-62
2022/11/16 02:01:26;;;;;;;7.00;6.30;;;;;;;12.22;85.10;99696.06;4991145;28;20030;-62
2022/11/16 02:03:52;;;;;;;7.72;7.00;;;;;;;12.25;85.10;99702.97;4990644;28;20039;-62
2022/11/16 02:06:26;;;;;;;8.00;7.10;;;;;;;12.24;85.76;99684.63;4987828;28;20056;-62
2022/11/16 02:12:17;;;;;;;8.20;7.22;;;;;;;12.24;85.47;99693.78;4994898;28;20041;-62
2022/11/16 02:14:58;;;;;;;8.18;7.18;;;;;;;12.28;85.54;99694.03;4995277;28;20409;-62
2022/11/16 02:17:57;;;;;;;8.43;6.97;;;;;;;12.26;85.65;99685.16;4993026;28;20090;-62
2022/11/16 02:20:56;;;;;;;7.20;6.50;;;;;;;12.27;85.63;99686.84;4993735;28;20034;-62
2022/11/16 02:23:39;;;;;;;8.18;7.18;;;;;;;12.21;85.75;99682.41;4994242;28;20026;-62
2022/11/16 02:26:10;;;;;;;9.00;6.90;;;;;;;12.24;85.48;99688.22;4992357;28;20038;-62
2022/11/16 02:28:44;;;;;;;7.95;7.13;;;;;;;12.23;85.51;99685.75;4982541;28;20026;-62
2022/11/16 02:31:16;;;;;;;6.93;6.22;;;;;;;12.24;85.52;99679.06;4993322;28;20554;-62
2022/11/16 02:33:45;;;;;;;9.00;6.93;;;;;;;12.25;85.42;99694.63;4993221;28;20061;-62
2022/11/16 02:36:17;;;;;;;8.23;6.95;;;;;;;12.26;85.29;99688.78;4990460;28;20085;-62
2022/11/16 02:38:50;;;;;;;7.07;5.82;;;;;;;12.25;85.18;99691.84;4992435;28;20038;-62
2022/11/16 02:41:17;;;;;;;;;;;;;;;12.35;84.11;99694.53;4992187;28;20508;-62
2022/11/16 02:43:47;;;;;;;7.22;5.38;;;;;;;12.24;84.47;99692.97;4992546;28;19921;-62
2022/11/16 02:46:19;;;;;;;7.45;5.35;;;;;;;12.24;84.81;99690.19;4993401;28;20034;-62
2022/11/16 02:48:52;;;;;;;5.57;5.07;;;;;;;12.27;84.20;99693.22;4998123;28;20037;-62
2022/11/16 02:51:19;;;;;;;5.43;4.93;;;;;;;12.24;84.49;99691.00;4992795;28;20064;-62
2022/11/16 02:54:15;;;;;;;5.93;5.32;;;;;;;12.28;84.52;99702.41;4992745;28;20838;-62
2022/11/16 02:56:54;;;;;;;6.53;4.75;;;;;;;12.26;84.39;99708.25;4993399;28;20470;-61
2022/11/16 02:59:21;;;;;;;7.63;5.43;;;;;;;12.25;84.26;99705.75;4994444;28;20034;-62
2022/11/16 03:02:02;;;;;;;6.43;5.50;;;;;;;12.24;84.55;99704.09;4978873;28;20018;-62
2022/11/16 03:04:40;;;;;;;5.55;4.97;;;;;;;12.23;84.55;99700.50;4979421;28;20034;-63
2022/11/16 03:07:09;;;;;;;5.57;4.97;;;;;;;12.24;84.01;99699.38;4992947;28;20108;-60
2022/11/16 03:09:39;;;;;;;5.18;4.75;;;;;;;12.22;83.84;99692.41;4992791;28;20116;-61
2022/11/16 03:12:08;;;;;;;4.65;4.25;;;;;;;12.22;84.13;99696.06;4994428;28;20014;-61
2022/11/16 03:14:57;;;;;;;5.15;4.57;;;;;;;12.25;83.63;99701.00;4993886;28;20033;-61
2022/11/16 03:17:42;;;;;;;4.93;4.30;;;;;;;12.26;83.52;99696.28;4993008;28;20053;-62
2022/11/16 03:20:21;;;;;;;4.88;4.22;;;;;;;12.25;83.16;99700.19;4988794;28;20093;-62
2022/11/16 03:22:51;;;;;;;5.40;4.07;;;;;;;12.24;83.37;99701.31;4983789;28;20037;-62
2022/11/16 03:25:18;;;;;;;6.45;3.67;;;;;;;12.22;82.91;99706.31;4992852;28;20029;-61
2022/11/16 03:27:58;;;;;;;4.28;3.88;;;;;;;12.20;83.05;99711.38;4992227;28;20543;-62
2022/11/16 03:30:26;;;;;;;4.60;3.50;;;;;;;12.19;83.08;99709.72;4990503;28;20056;-62
2022/11/16 03:33:09;;;;;;;4.43;3.42;;;;;;;12.18;83.09;99711.69;4991537;28;20393;-62
2022/11/16 03:35:42;;;;;;;4.43;2.97;;;;;;;12.16;82.89;99715.84;4991427;28;20088;-62
2022/11/16 03:38:10;;;;;;;3.28;2.58;;;;;;;12.18;81.89;99721.94;4991527;28;20034;-62
2022/11/16 03:40:37;;;;;;;3.60;2.60;;;;;;;12.15;81.61;99717.00;4991689;28;20027;-62
2022/11/16 03:43:05;;;;;;;3.25;2.20;;;;;;;12.10;81.26;99715.06;4990609;28;20038;-61
2022/11/16 03:45:31;;;;;;;2.50;1.92;;;;;;;12.07;81.00;99720.41;4991523;28;20069;-62
2022/11/16 03:47:56;;;;;;;4.40;1.77;;;;;;;12.07;80.95;99734.31;4992436;28;20057;-61
2022/11/16 03:50:22;;;;;;;2.40;1.70;;;;;;;12.06;80.99;99730.66;4988174;28;20035;-62
2022/11/16 03:52:47;;;;;;;2.08;1.80;;;;;;;12.01;81.02;99733.50;4989459;28;20030;-62
2022/11/16 03:55:12;;;;;;;6.15;2.10;;;;;;;12.00;81.21;99737.41;4992448;28;20065;-62
2022/11/16 03:57:38;;;;;;;4.75;2.17;;;;;;;11.98;81.07;99736.84;4980231;28;20046;-61
2022/11/16 04:00:05;;;;;;;4.65;2.60;;;;;;;11.95;80.94;99752.19;4991520;28;20125;-61
2022/11/16 04:02:30;;;;;;;3.75;2.33;;;;;;;11.96;81.19;99745.50;4992070;28;20110;-62
2022/11/16 04:25:12;;;;;;;2.42;2.20;;;;;;;11.91;80.45;99756.66;4985975;28;20058;-61
2022/11/16 04:30:22;;;;;;;4.13;2.20;;;;;;;11.92;80.24;99747.19;4989117;28;20049;-62
2022/11/16 04:38:15;;;;;;;5.40;2.38;;;;;;;11.91;80.22;99761.41;4992254;28;20045;-61
2022/11/16 04:40:44;;;;;;;3.70;2.40;;;;;;;11.88;79.72;99756.41;4985929;28;20038;-62
2022/11/16 04:43:09;;;;;;;3.58;2.53;;;;;;;11.84;79.58;99761.72;4990472;28;20113;-61
2022/11/16 04:48:20;;;;;;;3.53;2.03;;;;;;;11.84;79.40;99766.44;4986247;28;20085;-61
2022/11/16 04:50:46;;;;;;;3.72;2.55;;;;;;;11.84;79.67;99769.22;4979839;28;20026;-61
2022/11/16 04:53:12;;;;;;;5.88;2.45;;;;;;;11.76;79.40;99777.03;4990643;28;20045;-62
2022/11/16 04:55:37;;;;;;;4.00;2.33;;;;;;;11.75;79.70;99780.94;4989696;28;20045;-61
2022/11/16 04:58:03;;;;;;;4.97;2.38;;;;;;;11.77;79.55;99778.66;4989057;28;20050;-62
2022/11/16 05:00:28;;;;;;;4.18;2.75;;;;;;;11.77;79.56;99788.97;4980584;28;20026;-61
2022/11/16 05:02:54;;;;;;;4.65;2.83;;;;;;;11.76;79.36;99788.13;4989163;28;20033;-62
2022/11/16 05:05:19;;;;;;;5.28;3.03;;;;;;;11.73;79.36;99788.72;4987677;28;20085;-62
2022/11/16 05:07:44;;;;;;;3.92;2.85;;;;;;;11.71;79.33;99790.09;4989460;28;20085;-62
2022/11/16 05:10:11;;;;;;;5.68;3.00;;;;;;;11.74;79.63;99792.31;4987429;28;20030;-62
2022/11/16 05:12:37;;;;;;;5.88;3.03;;;;;;;11.72;79.46;99786.22;4990347;28;20030;-61
2022/11/16 05:15:03;;;;;;;6.32;3.15;;;;;;;11.69;79.33;99786.78;4988836;28;20033;-61
2022/11/16 05:17:29;;;;;;;7.50;2.92;;;;;;;11.68;78.86;99788.75;4982515;28;20523;-62
2022/11/16 05:22:38;;;;;;;8.18;2.75;;;;;;;11.67;78.90;99795.44;4989498;28;20042;-62
2022/11/16 05:25:06;;;;;;;7.10;3.08;;;;;;;11.68;78.48;99790.69;4989347;28;20034;-62
2022/11/16 05:27:31;;;;;;;6.82;2.83;;;;;;;11.59;78.32;99784.88;4989646;28;20172;-62
2022/11/16 05:29:56;;;;;;;5.72;2.88;;;;;;;11.62;78.65;99791.81;4984001;28;20113;-62
2022/11/16 05:32:24;;;;;;;6.75;3.00;;;;;;;11.59;78.60;99776.53;4984937;28;20138;-61
2022/11/16 05:34:49;;;;;;;6.53;2.80;;;;;;;11.57;78.44;99776.00;4989152;28;20031;-62
2022/11/16 05:37:15;;;;;;;6.03;3.20;;;;;;;11.53;78.17;99784.09;4981170;28;20046;-62
2022/11/16 05:39:41;;;;;;;6.22;3.00;;;;;;;11.51;78.34;99778.00;4989988;28;20034;-62
2022/11/16 05:42:09;;;;;;;5.70;2.80;;;;;;;11.51;77.80;99778.00;4988939;28;20568;-62
2022/11/16 05:44:37;;;;;;;6.45;2.92;;;;;;;11.48;77.40;99775.78;4984444;28;20485;-62
2022/11/16 05:47:02;;;;;;;3.50;3.10;;;;;;;11.40;77.04;99786.66;4989580;28;20038;-62
2022/11/16 05:49:28;;;;;;;5.53;2.85;;;;;;;11.36;76.68;99789.19;4988332;28;20508;-62
2022/11/16 05:51:53;;;;;;;4.75;2.60;;;;;;;11.35;76.82;99789.44;4988710;28;20027;-62
2022/11/16 05:54:20;;;;;;;6.13;2.88;;;;;;;11.29;76.92;99797.00;4975984;28;20109;-62
2022/11/16 05:56:47;;;;;;;9.27;3.20;;;;;;;11.28;76.96;99793.38;4972950;28;20042;-62
2022/11/16 05:59:15;;;;;;;9.43;3.40;;;;;;;11.24;77.15;99802.56;4989732;28;20405;-62
2022/11/16 06:01:41;;;;;;;4.50;3.20;;;;;;;11.27;77.80;99802.81;4989469;28;20033;-62
2022/11/16 06:04:06;;;;;;;6.65;3.50;;;;;;;11.24;77.44;99802.56;4990227;28;20027;-62
2022/11/16 06:06:32;;;;;;;6.55;3.63;;;;;;;11.23;77.44;99795.31;4991136;28;20512;-62
2022/11/16 06:08:57;;;;;;;7.40;3.60;;;;;;;11.27;77.87;99796.41;4986493;28;20049;-61
2022/11/16 06:11:23;;;;;;;4.95;3.10;;;;;;;11.23;77.42;99801.72;4984667;28;20026;-62
2022/11/16 06:13:48;;;;;;;5.45;3.40;;;;;;;11.20;77.31;99807.00;4985854;28;20026;-61
2022/11/16 06:16:14;;;;;;;5.00;3.90;;;;;;;11.17;78.06;99807.59;4988322;28;20034;-62
2022/11/16 06:18:41;;;;;;;10.52;4.25;;;;;;;11.19;77.79;99811.72;4981449;28;20050;-62
2022/11/16 06:21:07;;;;;;;8.50;3.67;;;;;;;11.19;77.72;99810.91;4988679;28;20030;-61
2022/11/16 06:23:33;;;;;;;9.60;3.80;;;;;;;11.16;77.60;99815.09;4978191;28;20038;-61
2022/11/16 06:25:59;;;;;;;5.35;3.95;;;;;;;11.13;77.68;99818.44;4982305;28;20042;-61
2022/11/16 06:28:25;;;;;;;7.25;3.92;;;;;;;11.10;77.83;99826.50;4987375;28;20113;-61
2022/11/16 06:30:50;;;;;;;5.55;3.58;;;;;;;11.09;77.88;99834.00;4981420;28;20414;-62
2022/11/16 06:33:16;;;;;;;5.60;3.78;;;;;;;11.07;77.87;99841.75;4979453;28;20018;-61
2022/11/16 06:35:41;;;;;;;10.25;3.83;;;;;;;11.09;77.71;99835.94;4986230;28;20362;-61
2022/11/16 06:38:07;;;;;;;7.60;3.75;;;;;;;11.03;77.68;99837.88;4987740;28;20533;-61
2022/11/16 06:40:32;;;;;;;7.10;3.45;;;;;;;11.03;77.69;99840.66;4983507;28;20038;-61
2022/11/16 06:42:58;;;;;;;6.47;3.28;;;;;;;10.99;77.76;99840.38;4984530;28;20033;-61
2022/11/16 06:45:24;;;;;;;10.10;4.10;;;;;;;11.04;77.69;99829.28;4985182;28;20052;-61
2022/11/16 06:47:50;;;;;;;5.20;3.58;;;;;;;11.02;77.79;99834.28;4984656;28;20057;-61
2022/11/16 06:50:18;;;;;;;6.57;3.30;;;;;;;10.99;77.57;99837.59;4986663;28;20457;-61
2022/11/16 06:52:47;;;;;;;5.85;3.63;;;;;;;11.01;77.40;99848.44;4986319;28;20041;-61
2022/11/16 06:55:13;;;;;;;7.20;3.00;;;;;;;10.96;77.51;99843.72;4989812;28;20036;-61
2022/11/16 06:57:39;;;;;;;5.93;3.30;;;;;;;10.99;77.29;99856.22;4984668;28;20038;-61
2022/11/16 07:00:06;;;;;;;8.13;2.72;;;;;;;10.93;77.12;99855.41;4988002;28;20031;-61
2022/11/16 07:02:31;;;;;;;6.55;3.25;;;;;;;10.96;77.27;99854.81;4990612;28;20113;-61
2022/11/16 07:04:56;;;;;;;7.38;3.03;;;;;;;10.98;77.20;99860.13;4990145;28;20600;-61
2022/11/16 07:07:21;;;;;;;7.05;3.40;;;;;;;10.94;77.09;99859.00;4975551;28;20035;-61
2022/11/16 07:09:47;;;;;;;8.63;2.90;;;;;;;10.90;77.05;99858.72;4982467;28;20026;-61
2022/11/16 07:12:12;;;;;;;7.15;3.40;;;;;;;10.96;77.16;99857.59;4990994;28;20042;-61
2022/11/16 07:14:37;;;;;;;7.45;3.83;;;;;;;10.92;77.03;99866.78;4989540;28;20042;-61
2022/11/16 07:17:03;;;;;;;5.97;3.30;;;;;;;10.81;76.96;99869.56;4989366;28;20076;-61
2022/11/16 07:19:31;;;;;;;9.10;3.45;;;;;;;10.84;77.14;99873.72;4982567;28;20038;-60
2022/11/16 07:21:56;;;;;;;4.65;3.25;;;;;;;10.82;77.09;99879.56;4979414;28;20797;-60
2022/11/16 07:24:21;;;;;;;8.00;3.80;;;;;;;10.86;77.16;99884.56;4990454;28;20162;-61
2022/11/16 07:26:47;;;;;;;5.88;4.00;;;;;;;10.80;76.86;99878.16;4989340;28;20092;-61
2022/11/16 07:29:14;;;;;;;10.65;5.10;;;;;;;10.82;76.87;99884.28;4986906;28;20053;-61
2022/11/16 07:31:39;;;;;;;10.60;4.85;;;;;;;10.80;76.84;99886.50;4983845;28;20030;-60
2022/11/16 07:34:04;;;;;;;13.85;5.70;;;;;;;10.82;76.88;99887.06;4986075;28;20996;-60
2022/11/16 07:36:29;;;;;;;8.15;5.50;;;;;;;10.83;76.79;99885.94;4988075;28;20509;-61
2022/11/16 07:38:55;;;;;;;15.45;6.13;;;;;;;10.73;77.09;99891.50;4989397;28;20034;-61
2022/11/16 07:41:20;;;;;;;12.27;5.88;;;;;;;10.75;77.37;99892.06;4989513;28;20393;-61
2022/11/16 07:43:46;;;;;;;13.90;5.68;;;;;;;10.75;77.06;99895.66;4992127;28;20076;-62
2022/11/16 07:46:13;;;;;;;12.15;5.63;;;;;;;10.72;77.15;99900.94;4986553;28;20058;-61
2022/11/16 07:48:39;;;;;;;13.23;5.97;;;;;;;10.72;77.26;99903.69;4985973;28;20026;-62
2022/11/16 07:51:07;;;;;;;12.82;5.95;;;;;;;10.71;77.28;99900.09;4983251;28;20512;-62
2022/11/16 07:53:33;;;;;;;12.18;5.60;;;;;;;10.74;77.07;99909.81;4984271;28;20485;-62
2022/11/16 07:55:59;;;;;;;12.35;5.40;;;;;;;10.70;76.96;99904.00;4991253;28;20038;-62
2022/11/16 07:58:26;;;;;;;8.10;4.70;;;;;;;10.72;77.35;99909.25;4989762;28;20062;-62
2022/11/16 08:00:51;;;;;;;15.25;5.07;;;;;;;10.72;76.94;99907.31;4987731;28;20468;-62
2022/11/16 08:03:17;;;;;;;11.80;4.90;;;;;;;10.74;77.08;99915.38;4991932;28;20129;-61
2022/11/16 08:05:43;;;;;;;11.90;4.50;;;;;;;10.73;77.13;99916.50;4991513;28;20033;-61
2022/11/16 08:08:09;;;;;;;9.15;4.70;;;;;;;10.79;77.32;99918.13;4991323;28;20117;-61
2022/11/16 08:10:35;;;;;;;10.85;5.00;;;;;;;10.75;76.76;99917.03;4991151;28;20363;-61
2022/11/16 08:13:01;;;;;;;9.68;4.05;;;;;;;10.77;76.74;99915.66;4992607;28;20030;-61
2022/11/16 08:15:26;;;;;;;6.38;3.30;;;;;;;10.71;76.43;99915.91;4991473;28;20034;-61
2022/11/16 08:17:51;;;;;;;9.02;3.50;;;;;;;10.75;76.97;99917.03;4991514;28;20023;-61
2022/11/16 08:20:16;;;;;;;9.88;3.60;;;;;;;10.73;76.70;99914.53;4992504;28;20390;-61
2022/11/16 08:22:43;;;;;;;12.60;3.65;;;;;;;10.73;76.40;99924.81;5004348;28;20053;-61
2022/11/16 08:25:09;;;;;;;10.15;3.30;;;;;;;10.77;76.63;99920.38;4991744;28;20700;-61
2022/11/16 08:27:35;;;;;;;11.30;3.53;;;;;;;10.75;76.60;99919.81;4991284;28;20027;-61
2022/11/16 08:30:03;;;;;;;8.02;3.03;;;;;;;10.79;76.21;99924.53;4991617;28;20036;-61
2022/11/16 08:32:29;;;;;;;9.55;3.10;;;;;;;10.77;76.27;99914.81;4990172;28;20381;-61
2022/11/16 08:34:55;;;;;;;13.20;3.40;;;;;;;10.73;76.01;99925.66;4991999;28;20023;-61
2022/11/16 08:37:20;;;;;;;130.00;78.30;;;;;;;10.76;76.41;99921.47;4984701;28;20022;-61
2022/11/16 08:39:46;;;;;;;52.33;27.20;;;;;;;10.78;76.38;99914.53;4990133;28;20029;-61
2022/11/16 08:42:11;;;;;;;21.60;9.13;;;;;;;10.81;76.03;99921.50;4991774;28;20030;-61
2022/11/16 08:44:36;;;;;;;9.68;3.83;;;;;;;10.83;76.03;99922.03;4988702;28;20128;-61
2022/11/16 08:47:01;;;;;;;11.27;3.25;;;;;;;10.82;76.30;99929.53;4991302;28;20544;-61
2022/11/16 08:49:30;;;;;;;8.40;2.95;;;;;;;10.86;75.94;99928.97;4991536;28;20117;-61
2022/11/16 08:51:55;;;;;;;9.75;3.60;;;;;;;10.84;76.16;99932.00;4991180;28;20033;-61
2022/11/16 08:54:21;;;;;;;10.57;3.55;;;;;;;10.81;75.96;99927.03;4989703;28;20030;-62
2022/11/16 08:56:46;;;;;;;10.40;2.67;;;;;;;10.86;76.17;99926.19;4990734;28;20478;-61
2022/11/16 08:59:12;;;;;;;12.95;3.17;;;;;;;10.85;76.21;99932.88;4989473;28;20468;-62
2022/11/16 09:01:38;;;;;;;9.07;2.58;;;;;;;10.84;75.91;99926.47;4991430;28;20034;-61
2022/11/16 09:04:03;;;;;;;8.88;2.85;;;;;;;10.88;75.30;99933.13;4991178;28;20036;-61
2022/11/16 09:06:28;;;;;;;11.32;2.70;;;;;;;10.89;75.72;99929.25;4972617;28;20462;-61
2022/11/16 09:08:55;;;;;;;10.23;3.00;;;;;;;10.90;75.70;99935.63;4971453;28;20027;-61
2022/11/16 09:11:22;;;;;;;12.10;3.33;;;;;;;10.91;75.42;99942.84;4971687;28;20394;-61
2022/11/16 09:13:49;;;;;;;9.63;3.30;;;;;;;10.94;75.46;99948.69;4983853;28;20472;-61
2022/11/16 09:16:15;;;;;;;13.55;3.42;;;;;;;11.00;75.35;99935.63;4989926;28;20461;-61
2022/11/16 09:18:42;;;;;;;11.93;3.33;;;;;;;11.12;75.40;99940.88;4989929;28;20041;-61
2022/11/16 09:21:08;;;;;;;12.10;2.80;;;;;;;11.20;75.30;99946.72;4990779;28;20022;-61
2022/11/16 09:23:33;;;;;;;12.93;2.70;;;;;;;11.39;75.18;99933.06;4990189;28;20381;-61
2022/11/16 09:26:03;;;;;;;9.30;2.70;;;;;;;11.49;74.24;99941.41;4990825;28;20026;-61
2022/11/16 09:28:29;;;;;;;8.80;3.03;;;;;;;11.66;73.86;99932.72;4987993;28;20109;-61
2022/11/16 09:30:59;;;;;;;12.00;2.60;;;;;;;11.73;72.72;99938.81;4990825;28;20462;-61
2022/11/16 09:33:26;;;;;;;10.65;2.70;;;;;;;11.83;72.86;99948.22;4990176;28;20018;-61
2022/11/16 09:35:51;;;;;;;12.60;3.03;;;;;;;11.93;73.54;99943.50;4988921;28;20394;-61
2022/11/16 09:38:16;;;;;;;13.75;2.70;;;;;;;12.06;72.89;99935.66;4986761;28;20041;-61
2022/11/16 09:40:45;;;;;;;9.68;2.40;;;;;;;12.14;72.61;99937.84;4980676;28;20081;-61
2022/11/16 09:43:46;;;;;;;11.32;2.50;;;;;;;12.25;72.66;99934.72;4987965;28;20080;-61
2022/11/16 09:46:20;;;;;;;13.38;3.08;;;;;;;12.35;71.97;99941.38;4971393;28;20724;-61
2022/11/16 09:48:48;;;;;;;7.15;2.38;;;;;;;12.45;71.50;99944.91;4969892;28;20054;-61
2022/11/16 09:51:15;;;;;;;11.18;2.80;;;;;;;12.51;70.75;99942.94;4971220;28;20030;-61
2022/11/16 09:53:43;;;;;;;10.02;2.38;;;;;;;12.51;69.65;99942.94;4970279;28;20037;-61
2022/11/16 09:56:19;;;;;;;6.80;2.40;;;;;;;12.58;70.22;99946.22;4972271;28;20030;-61
2022/11/16 09:59:06;;;;;;;9.35;2.65;;;;;;;12.73;71.06;99948.06;4989223;28;20060;-61
2022/11/16 10:01:40;;;;;;;7.82;2.10;;;;;;;12.77;69.24;99946.34;4989685;28;20031;-61
2022/11/16 10:04:11;;;;;;;10.35;2.22;;;;;;;12.73;68.61;99942.47;4990579;28;20466;-61
2022/11/16 10:06:58;;;;;;;13.23;2.63;;;;;;;12.77;69.43;99935.22;4988695;28;20551;-60
2022/11/16 10:09:24;;;;;;;7.00;2.05;;;;;;;12.87;68.49;99945.47;4990404;28;20129;-61
2022/11/16 10:11:49;;;;;;;7.95;2.38;;;;;;;12.98;67.71;99953.44;4988543;28;20425;-61
2022/11/16 10:14:30;;;;;;;10.10;2.28;;;;;;;13.04;67.88;99954.22;4990133;28;20041;-61
2022/11/16 10:17:28;;;;;;;9.98;2.63;;;;;;;13.08;67.92;99943.31;4988768;28;20038;-61
2022/11/16 10:20:04;;;;;;;6.88;2.08;;;;;;;13.13;67.10;99946.91;4987479;28;20125;-60
2022/11/16 10:22:48;;;;;;;8.20;2.22;;;;;;;13.20;67.53;99944.63;4989853;28;20022;-61
2022/11/16 10:25:15;;;;;;;11.85;2.03;;;;;;;13.23;67.66;99940.44;4987479;28;20482;-61
2022/11/16 10:28:17;;;;;;;5.82;1.80;;;;;;;13.32;68.40;99935.88;4988732;28;20061;-61
2022/11/16 10:30:53;;;;;;;7.18;2.17;;;;;;;13.42;67.17;99937.75;4978512;28;20561;-61
2022/11/16 10:33:20;;;;;;;10.40;2.35;;;;;;;13.48;66.64;99940.19;4994104;28;20038;-61
2022/11/16 10:35:52;;;;;;;7.20;2.15;;;;;;;13.46;65.92;99924.88;4992900;28;20030;-61
2022/11/16 10:38:32;;;;;;;8.90;2.20;;;;;;;13.50;66.20;99929.56;4993613;28;20478;-62
2022/11/16 10:41:04;;;;;;;8.85;2.20;;;;;;;13.51;65.63;99936.78;4998282;28;20025;-61
2022/11/16 10:43:31;;;;;;;9.25;2.00;;;;;;;13.55;64.58;99939.81;4993539;28;20040;-62
2022/11/16 10:46:22;;;;;;;9.25;2.53;;;;;;;13.49;65.02;99936.28;4992588;28;20042;-60
2022/11/16 10:48:56;;;;;;;6.72;1.90;;;;;;;13.48;64.93;99939.38;4993558;28;20034;-60
2022/11/16 10:51:21;;;;;;;7.45;2.03;;;;;;;13.47;64.89;99938.50;4993754;28;20018;-59
2022/11/16 10:53:47;;;;;;;9.07;1.75;;;;;;;13.48;64.80;99934.63;4986891;28;20026;-59
2022/11/16 10:56:19;;;;;;;6.45;2.05;;;;;;;13.44;64.29;99933.56;4979474;28;20029;-60
2022/11/16 10:58:59;;;;;;;7.30;1.95;;;;;;;13.42;64.86;99934.97;4991686;28;20046;-60
2022/11/16 11:01:48;;;;;;;5.95;1.70;;;;;;;13.34;64.62;99950.38;4991577;28;20030;-61
2022/11/16 11:04:28;;;;;;;7.50;1.90;;;;;;;13.26;65.59;99942.66;4987740;28;20141;-61
2022/11/16 11:06:56;;;;;;;6.95;1.67;;;;;;;13.21;64.95;99934.31;4975613;28;20038;-59
2022/11/16 11:09:29;;;;;;;6.22;1.75;;;;;;;13.22;64.87;99925.66;4990408;28;20076;-59
2022/11/16 11:15:04;;;;;;;9.52;1.92;;;;;;;13.27;65.53;99933.16;4985132;28;20553;-60
2022/11/16 11:17:32;;;;;;;12.70;2.10;;;;;;;13.19;64.02;99925.41;4988963;28;20441;-60
2022/11/16 11:20:13;;;;;;;9.15;2.10;;;;;;;13.12;64.88;99934.09;4992701;28;20030;-61
2022/11/16 11:22:55;;;;;;;11.27;2.47;;;;;;;13.06;65.65;99929.69;4991712;28;20014;-60
2022/11/16 11:25:32;;;;;;;10.33;1.87;;;;;;;13.00;65.53;99926.09;4988572;28;20046;-60
2022/11/16 11:28:21;;;;;;;10.52;2.10;;;;;;;12.95;65.30;99925.34;4991920;28;20116;-60
2022/11/16 11:31:24;;;;;;;7.20;1.95;;;;;;;12.87;65.31;99923.19;4989538;28;20019;-59
2022/11/16 11:33:56;;;;;;;6.57;1.88;;;;;;;12.80;65.79;99919.88;4990212;28;20062;-60
2022/11/16 11:36:24;;;;;;;10.27;2.13;;;;;;;12.74;64.67;99910.75;4994080;28;20081;-60
2022/11/16 11:39:05;;;;;;;8.18;1.67;;;;;;;12.67;65.56;99915.81;4996157;28;20034;-60
2022/11/16 11:41:36;;;;;;;7.53;1.90;;;;;;;12.63;65.95;99911.94;4989455;28;20026;-60
2022/11/16 11:44:04;;;;;;;6.03;1.77;;;;;;;12.62;66.02;99907.50;4985925;28;20035;-60
2022/11/16 11:46:36;;;;;;;8.20;1.85;;;;;;;12.56;66.63;99903.91;4993281;28;20125;-60
2022/11/16 11:49:15;;;;;;;8.27;1.67;;;;;;;12.57;66.59;99905.56;4990119;28;20026;-61
2022/11/16 11:51:41;;;;;;;8.50;1.73;;;;;;;12.56;66.38;99908.66;4982233;28;20159;-61
2022/11/16 11:54:25;;;;;;;7.78;1.65;;;;;;;12.50;66.36;99896.75;4975963;28;20055;-60
2022/11/16 11:56:51;;;;;;;7.13;1.67;;;;;;;12.48;66.32;99885.88;4989348;28;20055;-60
2022/11/16 11:59:20;;;;;;;7.60;1.83;;;;;;;12.52;67.02;99875.81;4984803;28;20085;-60
2022/11/16 12:02:07;;;;;;;5.85;1.83;;;;;;;12.61;66.77;99880.78;4983001;28;20211;-61
2022/11/16 12:05:01;;;;;;;6.30;2.05;;;;;;;12.68;66.72;99875.72;4989089;28;20095;-60
2022/11/16 12:07:47;;;;;;;6.75;1.70;;;;;;;12.67;65.73;99874.88;4990537;28;20044;-59
2022/11/16 12:10:33;;;;;;;7.40;1.90;;;;;;;12.65;66.03;99879.06;4987754;28;20044;-60
2022/11/16 12:13:28;;;;;;;10.23;1.63;;;;;;;12.62;65.97;99874.09;4989842;28;20026;-60
2022/11/16 12:16:23;;;;;;;6.80;1.92;;;;;;;12.60;66.34;99862.41;4989136;28;20042;-60
2022/11/16 12:19:14;;;;;;;7.88;2.08;;;;;;;12.60;66.21;99854.06;4985651;28;20038;-59
2022/11/16 12:21:54;;;;;;;10.65;2.10;;;;;;;12.61;65.79;99856.53;4982660;28;20118;-60
2022/11/16 12:24:32;;;;;;;8.50;1.73;;;;;;;12.63;66.13;99850.72;4991088;28;20030;-60
2022/11/16 12:27:19;;;;;;;9.70;1.77;;;;;;;12.67;66.41;99862.91;4976887;28;20030;-60